Time;durP1;ratioP1;P1;durP2;ratioP2;P2;SDS_P1;SDS_P2;PMS_P1;PMS_P2;Temp;Humidity;BMP_temperature;BMP_pressure;BME280_temperature;BME280_humidity;BME280_pressure;Samples;Min_cycle;Max_cycle;Signal;HPM_P1;HPM_P2
2021/08/19 00:01:06;;;;;;;2.83;2.53;;;20.10;99.90;;;;;;5024486;28;20194;-76
2021/08/19 00:03:32;;;;;;;2.30;2.10;;;20.10;99.90;;;;;;5000299;28;20178;-77
2021/08/19 00:05:58;;;;;;;2.73;2.37;;;20.10;99.90;;;;;;5015982;28;20181;-76
2021/08/19 00:08:23;;;;;;;2.87;2.37;;;20.10;99.90;;;;;;5015474;28;20564;-77
2021/08/19 00:10:49;;;;;;;3.03;2.27;;;20.10;99.90;;;;;;5015760;28;20951;-77
2021/08/19 00:13:15;;;;;;;4.03;2.60;;;20.10;99.90;;;;;;5033497;28;20170;-85
2021/08/19 00:15:41;;;;;;;3.80;3.10;;;20.10;99.90;;;;;;5033241;28;20236;-85
2021/08/19 00:18:06;;;;;;;3.40;2.87;;;20.10;99.90;;;;;;5015359;28;20650;-85
2021/08/19 00:20:32;;;;;;;4.30;2.83;;;20.10;99.90;;;;;;5032611;28;20189;-84
2021/08/19 00:22:59;;;;;;;4.83;2.90;;;20.00;99.90;;;;;;5032692;28;20185;-84
2021/08/19 00:25:25;;;;;;;4.47;3.13;;;20.10;99.90;;;;;;5032385;28;20178;-85
2021/08/19 00:27:51;;;;;;;4.20;2.43;;;20.00;99.90;;;;;;5032837;28;20719;-85
2021/08/19 00:30:17;;;;;;;3.57;2.60;;;20.00;99.90;;;;;;5032683;28;21250;-85
2021/08/19 00:32:43;;;;;;;5.13;3.20;;;20.00;99.90;;;;;;5032811;28;20569;-84
2021/08/19 00:35:09;;;;;;;3.40;2.87;;;20.00;99.90;;;;;;5032219;28;20568;-84
2021/08/19 00:37:34;;;;;;;3.77;2.80;;;20.00;99.90;;;;;;5032495;28;20165;-85
2021/08/19 00:40:03;;;;;;;3.37;3.03;;;20.00;99.90;;;;;;5023321;28;20940;-85
2021/08/19 00:42:31;;;;;;;3.37;2.63;;;20.00;99.90;;;;;;5000891;28;20511;-85
2021/08/19 00:44:57;;;;;;;3.40;3.03;;;20.10;99.90;;;;;;5021443;28;20573;-85
2021/08/19 00:47:26;;;;;;;3.57;2.87;;;20.00;99.90;;;;;;5030541;28;21235;-85
2021/08/19 00:49:52;;;;;;;4.90;2.60;;;20.10;99.90;;;;;;5005388;28;20584;-85
2021/08/19 00:52:18;;;;;;;3.67;3.37;;;20.10;99.90;;;;;;5003202;28;21192;-85
2021/08/19 00:54:44;;;;;;;3.27;2.97;;;20.10;99.90;;;;;;5009841;28;20604;-84
2021/08/19 00:57:10;;;;;;;4.70;3.60;;;20.10;99.90;;;;;;5025791;28;21490;-83
2021/08/19 00:59:39;;;;;;;3.37;3.07;;;20.10;99.90;;;;;;5030452;28;20235;-84
2021/08/19 01:02:09;;;;;;;3.53;3.07;;;20.10;99.90;;;;;;5023557;28;20608;-85
2021/08/19 01:04:42;;;;;;;3.20;2.90;;;20.20;99.90;;;;;;5014287;28;20619;-85
2021/08/19 01:07:12;;;;;;;3.80;3.03;;;20.10;99.90;;;;;;5014662;28;21215;-84
2021/08/19 01:09:39;;;;;;;3.23;2.97;;;20.20;99.90;;;;;;5014380;28;20560;-84
2021/08/19 01:12:06;;;;;;;3.80;3.00;;;20.20;99.90;;;;;;4997424;28;20608;-84
2021/08/19 01:14:33;;;;;;;7.90;3.70;;;20.20;99.90;;;;;;5031869;28;20659;-85
2021/08/19 01:17:04;;;;;;;8.93;3.50;;;20.20;99.90;;;;;;5032286;28;20580;-86
2021/08/19 01:19:29;;;;;;;4.70;3.50;;;20.20;99.90;;;;;;5032295;28;20577;-84
2021/08/19 01:21:55;;;;;;;4.20;3.67;;;20.20;99.90;;;;;;5031478;28;20612;-84
2021/08/19 01:24:21;;;;;;;8.40;4.77;;;20.20;99.90;;;;;;5031672;28;20162;-85
2021/08/19 01:26:50;;;;;;;5.23;3.43;;;20.20;99.90;;;;;;5031706;28;20288;-84
2021/08/19 01:29:16;;;;;;;4.93;3.87;;;20.30;99.90;;;;;;5014288;28;20170;-85
2021/08/19 01:31:56;;;;;;;5.00;3.90;;;20.20;99.90;;;;;;5014231;28;20630;-85
2021/08/19 01:34:22;;;;;;;4.93;4.37;;;20.30;99.90;;;;;;5031494;28;20618;-85
2021/08/19 01:36:47;;;;;;;4.07;3.20;;;20.30;99.90;;;;;;5031749;28;20572;-84
2021/08/19 01:39:13;;;;;;;5.00;3.60;;;20.30;99.90;;;;;;4997637;28;20181;-84
2021/08/19 01:41:39;;;;;;;4.63;2.90;;;20.30;99.90;;;;;;5014350;28;20196;-85
2021/08/19 01:44:05;;;;;;;4.70;3.90;;;20.30;99.90;;;;;;5031576;28;20170;-84
2021/08/19 01:46:30;;;;;;;4.10;3.70;;;20.30;99.90;;;;;;5013769;28;20696;-82
2021/08/19 01:48:56;;;;;;;4.90;3.47;;;20.30;99.90;;;;;;5031529;28;20162;-84
2021/08/19 01:51:22;;;;;;;5.80;3.73;;;20.30;99.90;;;;;;5031797;28;20693;-85
2021/08/19 01:53:51;;;;;;;4.50;4.10;;;20.30;99.90;;;;;;5013411;28;20181;-83
2021/08/19 01:56:23;;;;;;;3.80;3.10;;;20.30;99.90;;;;;;5016026;28;20620;-85
2021/08/19 01:58:55;;;;;;;5.90;4.10;;;20.30;99.90;;;;;;5013108;28;20603;-84
2021/08/19 02:01:23;;;;;;;7.00;3.53;;;20.40;99.90;;;;;;5014916;28;20612;-86
2021/08/19 02:03:50;;;;;;;4.33;3.27;;;20.40;99.90;;;;;;5003490;28;20589;-86
2021/08/19 02:06:16;;;;;;;3.87;3.30;;;20.40;99.90;;;;;;5012119;28;20933;-86
2021/08/19 02:08:42;;;;;;;4.70;4.23;;;20.30;99.90;;;;;;4995053;28;20664;-86
2021/08/19 02:11:08;;;;;;;6.23;3.53;;;20.40;99.90;;;;;;4994694;28;20706;-86
2021/08/19 02:13:34;;;;;;;4.20;3.20;;;20.30;99.90;;;;;;5012439;28;20167;-86
2021/08/19 02:16:00;;;;;;;3.97;3.20;;;20.30;99.90;;;;;;5019209;28;20588;-86
2021/08/19 02:18:28;;;;;;;6.60;3.90;;;20.40;99.90;;;;;;5004554;28;20162;-86
2021/08/19 02:20:54;;;;;;;5.93;3.70;;;20.40;99.90;;;;;;5003961;28;20613;-84
2021/08/19 02:23:20;;;;;;;4.40;3.70;;;20.40;99.90;;;;;;4998153;28;20182;-85
2021/08/19 02:25:46;;;;;;;4.57;3.50;;;20.40;99.90;;;;;;5018590;28;20643;-85
2021/08/19 02:28:12;;;;;;;4.00;3.40;;;20.40;99.90;;;;;;5021747;28;20628;-85
2021/08/19 02:30:38;;;;;;;6.73;3.37;;;20.40;99.90;;;;;;5013953;28;20197;-84
2021/08/19 02:33:04;;;;;;;3.10;2.80;;;20.40;99.90;;;;;;5034219;28;20577;-85
2021/08/19 02:35:31;;;;;;;5.07;3.50;;;20.40;99.90;;;;;;5016579;28;20576;-85
2021/08/19 02:38:00;;;;;;;4.93;3.00;;;20.40;99.90;;;;;;5016318;28;20577;-84
2021/08/19 02:40:27;;;;;;;5.80;3.27;;;20.40;99.90;;;;;;5016301;28;20607;-85
2021/08/19 02:42:53;;;;;;;5.87;3.10;;;20.40;99.90;;;;;;5016657;28;20576;-85
2021/08/19 02:45:19;;;;;;;3.50;2.53;;;20.50;99.90;;;;;;5015670;28;20568;-84
2021/08/19 02:47:44;;;;;;;3.47;2.73;;;20.50;99.90;;;;;;5072740;23;20674;-82
2021/08/19 02:50:10;;;;;;;3.67;3.10;;;20.50;99.90;;;;;;5038812;28;20590;-82
2021/08/19 02:52:36;;;;;;;4.63;2.77;;;20.50;99.90;;;;;;5069017;28;20271;-82
2021/08/19 02:55:04;;;;;;;4.30;3.00;;;20.50;99.90;;;;;;5073873;28;21020;-82
2021/08/19 02:57:29;;;;;;;3.37;3.07;;;20.50;99.90;;;;;;5044901;28;20654;-82
2021/08/19 02:59:55;;;;;;;4.80;2.90;;;20.50;99.90;;;;;;5071089;28;20574;-82
2021/08/19 03:02:21;;;;;;;3.47;3.13;;;20.50;99.90;;;;;;5070815;28;20255;-82
2021/08/19 03:04:47;;;;;;;3.93;2.80;;;20.50;99.90;;;;;;5069764;28;20255;-82
2021/08/19 03:07:13;;;;;;;3.40;2.50;;;20.50;99.90;;;;;;5073284;28;20676;-81
2021/08/19 03:09:39;;;;;;;4.27;3.13;;;20.50;99.90;;;;;;5062860;28;20192;-81
2021/08/19 03:12:07;;;;;;;3.40;2.70;;;20.50;99.90;;;;;;5066982;28;20624;-82
2021/08/19 03:14:33;;;;;;;2.60;2.20;;;20.50;99.90;;;;;;5073509;28;20574;-82
2021/08/19 03:16:59;;;;;;;6.43;3.30;;;20.50;99.90;;;;;;5073245;28;20602;-82
2021/08/19 03:19:25;;;;;;;7.63;3.00;;;20.50;99.90;;;;;;5073663;28;20590;-83
2021/08/19 03:21:51;;;;;;;4.60;3.03;;;20.50;99.90;;;;;;5055910;28;20597;-82
2021/08/19 03:24:16;;;;;;;5.10;2.70;;;20.50;99.90;;;;;;5060171;28;20199;-81
2021/08/19 03:26:42;;;;;;;4.33;3.00;;;20.50;99.90;;;;;;5055728;28;20200;-81
2021/08/19 03:29:08;;;;;;;3.43;3.00;;;20.50;99.90;;;;;;5073264;28;20164;-81
2021/08/19 03:31:34;;;;;;;3.73;2.80;;;20.50;99.90;;;;;;5055380;28;20200;-81
2021/08/19 03:33:59;;;;;;;3.60;2.70;;;20.50;99.90;;;;;;5054759;28;20582;-83
2021/08/19 03:36:25;;;;;;;2.80;2.43;;;20.50;99.90;;;;;;5055232;28;20196;-82
2021/08/19 03:38:52;;;;;;;2.67;2.47;;;20.50;99.90;;;;;;5055422;28;20168;-83
2021/08/19 03:41:17;;;;;;;5.20;2.87;;;20.50;99.90;;;;;;5043975;28;20601;-83
2021/08/19 03:43:46;;;;;;;4.13;2.53;;;20.50;99.90;;;;;;5033173;28;21052;-83
2021/08/19 03:46:12;;;;;;;2.80;2.50;;;20.50;99.90;;;;;;5068330;28;20208;-82
2021/08/19 03:48:38;;;;;;;6.80;2.87;;;20.40;99.90;;;;;;5048593;28;20686;-83
2021/08/19 03:51:05;;;;;;;3.63;2.13;;;20.40;99.90;;;;;;5073010;28;20702;-83
2021/08/19 03:53:31;;;;;;;4.30;2.70;;;20.40;99.90;;;;;;5060602;28;20247;-83
2021/08/19 03:55:57;;;;;;;3.13;2.60;;;20.40;99.90;;;;;;5045888;28;20590;-83
2021/08/19 03:58:23;;;;;;;3.17;2.53;;;20.40;99.90;;;;;;5072956;28;20628;-82
2021/08/19 04:00:50;;;;;;;5.70;2.30;;;20.40;99.90;;;;;;5070819;28;20180;-82
2021/08/19 04:03:16;;;;;;;5.83;2.90;;;20.40;99.90;;;;;;5056610;28;20677;-82
2021/08/19 04:05:43;;;;;;;3.70;2.70;;;20.50;99.90;;;;;;5072268;28;21002;-82
2021/08/19 04:08:09;;;;;;;5.80;3.00;;;20.50;99.90;;;;;;5072567;28;20725;-83
2021/08/19 04:10:34;;;;;;;4.13;2.70;;;20.50;99.90;;;;;;5072611;28;20778;-82
2021/08/19 04:13:00;;;;;;;4.47;2.97;;;20.50;99.90;;;;;;5072739;28;21089;-82
2021/08/19 04:15:26;;;;;;;3.80;2.70;;;20.50;99.90;;;;;;5054262;28;20647;-83
2021/08/19 04:17:52;;;;;;;4.47;2.60;;;20.50;99.90;;;;;;5072638;28;20606;-83
2021/08/19 04:20:19;;;;;;;3.40;3.00;;;20.60;99.90;;;;;;5072644;28;20180;-83
2021/08/19 04:22:46;;;;;;;5.43;3.00;;;20.60;99.90;;;;;;5054626;28;20590;-83
2021/08/19 04:25:13;;;;;;;4.27;2.93;;;20.60;99.90;;;;;;5072217;28;20571;-82
2021/08/19 04:27:39;;;;;;;5.33;2.93;;;20.60;99.90;;;;;;5072174;28;20634;-81
2021/08/19 04:30:07;;;;;;;3.73;3.30;;;20.60;99.90;;;;;;5072214;28;20587;-81
2021/08/19 04:32:33;;;;;;;4.00;2.47;;;20.60;99.90;;;;;;5037843;28;20589;-81
2021/08/19 04:34:59;;;;;;;6.10;3.20;;;20.60;99.90;;;;;;5054454;28;20566;-81
2021/08/19 04:37:25;;;;;;;3.80;3.23;;;20.60;99.90;;;;;;5076710;28;20630;-82
2021/08/19 04:39:51;;;;;;;4.80;2.93;;;20.60;99.90;;;;;;5054587;28;21120;-81
2021/08/19 04:42:17;;;;;;;4.20;2.57;;;20.60;99.90;;;;;;5072052;28;20207;-81
2021/08/19 04:44:42;;;;;;;3.53;2.90;;;20.60;99.90;;;;;;5071923;28;20594;-81
2021/08/19 04:47:08;;;;;;;5.13;2.27;;;20.60;99.90;;;;;;5053739;28;20204;-81
2021/08/19 04:49:34;;;;;;;5.37;3.03;;;20.60;99.90;;;;;;5072432;28;20168;-82
2021/08/19 04:51:59;;;;;;;5.17;2.87;;;20.60;99.90;;;;;;5073592;28;20196;-83
2021/08/19 04:54:25;;;;;;;6.73;2.93;;;20.60;99.90;;;;;;5075016;28;20643;-83
2021/08/19 04:56:51;;;;;;;3.43;2.17;;;20.60;99.90;;;;;;5071724;28;20188;-83
2021/08/19 04:59:17;;;;;;;4.17;2.70;;;20.60;99.90;;;;;;5071985;28;20520;-83
2021/08/19 05:01:43;;;;;;;3.93;3.00;;;20.60;99.90;;;;;;5037354;28;20640;-82
2021/08/19 05:04:09;;;;;;;3.20;2.63;;;20.60;99.90;;;;;;5071506;28;20570;-82
2021/08/19 05:06:35;;;;;;;4.07;3.20;;;20.60;99.90;;;;;;5071276;28;20638;-82
2021/08/19 05:09:04;;;;;;;2.57;2.37;;;20.60;99.90;;;;;;5071779;28;20567;-83
2021/08/19 05:11:30;;;;;;;3.10;2.80;;;20.60;99.90;;;;;;5071467;28;21109;-83
2021/08/19 05:13:57;;;;;;;3.37;2.40;;;20.60;99.90;;;;;;5076177;28;20551;-83
2021/08/19 05:16:23;;;;;;;4.37;2.83;;;20.60;99.90;;;;;;5053732;28;20563;-83
2021/08/19 05:18:48;;;;;;;4.73;2.63;;;20.70;99.90;;;;;;5053876;28;20576;-83
2021/08/19 05:21:14;;;;;;;4.80;3.00;;;20.70;99.90;;;;;;5038583;28;20571;-84
2021/08/19 05:23:40;;;;;;;3.80;2.67;;;20.70;99.90;;;;;;5071712;28;20160;-85
2021/08/19 05:26:06;;;;;;;4.83;2.10;;;20.70;99.90;;;;;;5071420;28;20160;-84
2021/08/19 05:28:32;;;;;;;2.20;2.00;;;20.70;99.90;;;;;;5070563;28;21005;-84
2021/08/19 05:30:58;;;;;;;3.37;2.00;;;20.60;99.90;;;;;;5062835;28;20660;-84
2021/08/19 05:33:24;;;;;;;4.40;2.33;;;20.70;99.90;;;;;;5060560;28;20574;-84
2021/08/19 05:35:50;;;;;;;2.60;1.90;;;20.70;99.90;;;;;;5059752;28;20573;-84
2021/08/19 05:38:16;;;;;;;2.83;2.53;;;20.70;99.90;;;;;;5074833;28;20188;-83
2021/08/19 05:40:41;;;;;;;3.07;1.87;;;20.70;99.90;;;;;;5073621;28;20171;-84
2021/08/19 05:43:07;;;;;;;3.37;2.13;;;20.70;99.90;;;;;;5074489;28;20179;-84
2021/08/19 05:45:33;;;;;;;3.10;1.87;;;20.80;99.90;;;;;;5059072;28;20620;-83
2021/08/19 05:48:01;;;;;;;3.60;2.30;;;20.70;99.90;;;;;;5052578;28;20291;-83
2021/08/19 05:50:27;;;;;;;3.43;1.80;;;20.80;99.90;;;;;;5074122;28;20562;-83
2021/08/19 05:52:53;;;;;;;3.33;1.80;;;20.80;99.90;;;;;;5072304;28;20624;-83
2021/08/19 05:55:19;;;;;;;4.00;2.73;;;20.80;99.90;;;;;;5056239;28;20559;-83
2021/08/19 05:57:51;;;;;;;2.77;2.20;;;20.80;99.90;;;;;;5076605;28;20195;-82
2021/08/19 06:00:20;;;;;;;3.30;2.27;;;20.80;99.90;;;;;;5076014;28;20183;-82
2021/08/19 06:02:47;;;;;;;4.93;2.40;;;20.80;99.90;;;;;;5060414;28;20582;-83
2021/08/19 06:05:12;;;;;;;3.33;2.43;;;20.90;99.90;;;;;;5079514;28;20601;-82
2021/08/19 06:07:38;;;;;;;3.20;2.27;;;20.90;99.90;;;;;;5081382;28;20633;-82
2021/08/19 06:10:04;;;;;;;5.27;2.77;;;20.90;99.90;;;;;;5056973;28;20176;-82
2021/08/19 06:12:30;;;;;;;3.90;2.50;;;20.90;99.90;;;;;;5074963;28;20165;-83
2021/08/19 06:14:56;;;;;;;5.00;3.20;;;20.90;99.90;;;;;;5074886;28;20555;-83
2021/08/19 06:17:21;;;;;;;2.60;2.17;;;20.90;99.90;;;;;;5074459;28;20188;-82
2021/08/19 06:19:47;;;;;;;3.17;2.10;;;20.90;99.90;;;;;;5074770;28;20259;-82
2021/08/19 06:22:13;;;;;;;3.13;2.43;;;20.90;99.90;;;;;;5075150;28;20175;-83
2021/08/19 06:24:39;;;;;;;3.40;2.57;;;20.90;99.90;;;;;;5076699;28;20225;-83
2021/08/19 06:27:04;;;;;;;2.77;2.40;;;20.90;99.90;;;;;;5080234;28;20632;-83
2021/08/19 06:29:30;;;;;;;2.70;2.50;;;20.90;99.90;;;;;;5080114;28;20169;-83
2021/08/19 06:31:56;;;;;;;3.10;2.80;;;20.90;99.90;;;;;;5077791;28;20210;-82
2021/08/19 06:34:21;;;;;;;2.90;2.27;;;20.90;99.90;;;;;;5088705;28;20168;-83
2021/08/19 06:36:47;;;;;;;4.50;3.60;;;20.90;99.90;;;;;;5077847;28;20184;-82
2021/08/19 06:39:13;;;;;;;2.20;2.00;;;20.90;99.90;;;;;;5080531;28;20172;-82
2021/08/19 06:41:39;;;;;;;4.07;2.80;;;20.80;99.90;;;;;;5078636;28;20222;-81
2021/08/19 06:44:05;;;;;;;3.83;3.00;;;20.90;99.90;;;;;;5085320;28;20180;-81
2021/08/19 06:46:31;;;;;;;3.50;2.50;;;20.90;99.90;;;;;;5086026;28;20624;-81
2021/08/19 06:48:57;;;;;;;2.73;2.53;;;20.80;99.90;;;;;;5085100;28;20196;-82
2021/08/19 06:51:23;;;;;;;3.47;3.03;;;20.90;99.90;;;;;;5079455;28;20569;-81
2021/08/19 06:53:49;;;;;;;4.37;2.03;;;20.80;99.90;;;;;;5055996;28;20644;-81
2021/08/19 06:56:15;;;;;;;3.60;2.10;;;20.80;99.90;;;;;;5073858;28;20191;-81
2021/08/19 06:58:40;;;;;;;4.43;2.10;;;20.90;99.90;;;;;;5042482;28;20167;-81
2021/08/19 07:01:06;;;;;;;3.63;2.60;;;20.90;99.90;;;;;;5050634;28;20684;-81
2021/08/19 07:03:32;;;;;;;4.13;2.93;;;20.90;99.90;;;;;;5040596;28;20230;-81
2021/08/19 07:05:57;;;;;;;3.70;2.70;;;20.90;99.90;;;;;;5059438;28;20553;-82
2021/08/19 07:08:23;;;;;;;4.83;3.07;;;20.90;99.90;;;;;;5061875;28;20197;-82
2021/08/19 07:10:50;;;;;;;4.67;2.30;;;20.90;99.90;;;;;;5061924;28;20629;-81
2021/08/19 07:13:16;;;;;;;2.77;2.07;;;20.90;99.90;;;;;;5063274;28;20174;-82
2021/08/19 07:15:44;;;;;;;6.17;2.77;;;20.90;99.90;;;;;;5063830;28;21118;-82
2021/08/19 07:18:11;;;;;;;3.13;2.83;;;21.00;99.90;;;;;;5062020;28;20599;-82
2021/08/19 07:20:36;;;;;;;2.80;2.50;;;20.90;99.90;;;;;;5016023;28;20574;-83
2021/08/19 07:23:02;;;;;;;5.53;3.07;;;21.00;99.90;;;;;;5065774;28;20643;-82
2021/08/19 07:25:29;;;;;;;5.23;3.10;;;21.00;99.90;;;;;;5048841;28;20165;-82
2021/08/19 07:27:54;;;;;;;3.60;2.53;;;21.00;99.90;;;;;;5064615;28;20212;-82
2021/08/19 07:30:20;;;;;;;2.73;2.10;;;21.10;99.90;;;;;;5067160;28;20579;-82
2021/08/19 07:32:46;;;;;;;3.70;3.00;;;21.10;99.90;;;;;;5067403;28;20585;-82
2021/08/19 07:35:12;;;;;;;5.50;3.90;;;21.20;99.90;;;;;;5066652;28;20587;-81
2021/08/19 07:37:48;;;;;;;3.07;2.30;;;21.30;99.90;;;;;;5044258;28;20228;-82
2021/08/19 07:40:15;;;;;;;3.93;2.90;;;21.30;99.90;;;;;;5044625;28;20606;-82
2021/08/19 07:42:43;;;;;;;3.10;2.50;;;21.40;99.90;;;;;;5046296;28;20610;-82
2021/08/19 07:45:09;;;;;;;3.23;2.93;;;21.40;99.90;;;;;;5042400;28;20578;-79
2021/08/19 07:47:35;;;;;;;3.67;2.87;;;21.50;99.90;;;;;;5034498;28;20638;-78
2021/08/19 07:50:01;;;;;;;4.47;3.23;;;21.50;99.90;;;;;;5052409;28;20721;-79
2021/08/19 07:52:27;;;;;;;3.40;3.10;;;21.50;99.90;;;;;;5052225;28;20613;-79
2021/08/19 07:54:53;;;;;;;3.40;3.10;;;21.50;99.90;;;;;;5052430;28;20662;-79
2021/08/19 07:57:19;;;;;;;4.17;3.10;;;21.60;99.90;;;;;;5034643;28;20690;-78
2021/08/19 07:59:45;;;;;;;4.13;3.23;;;21.70;99.90;;;;;;5052459;28;20570;-78
2021/08/19 08:02:11;;;;;;;3.57;3.27;;;21.80;99.90;;;;;;5052744;28;20571;-78
2021/08/19 08:04:37;;;;;;;5.80;2.90;;;22.00;99.90;;;;;;5051964;28;20169;-79
2021/08/19 08:07:03;;;;;;;3.63;2.80;;;22.20;99.90;;;;;;5052433;28;20290;-79
2021/08/19 08:09:28;;;;;;;4.10;3.37;;;22.50;99.90;;;;;;5051983;28;20209;-79
2021/08/19 08:11:56;;;;;;;3.40;2.47;;;22.70;99.90;;;;;;5052557;28;20661;-79
2021/08/19 08:14:22;;;;;;;4.20;2.27;;;23.00;99.90;;;;;;5052077;28;20531;-79
2021/08/19 08:16:48;;;;;;;2.50;2.30;;;23.20;99.90;;;;;;5034387;28;20610;-79
2021/08/19 08:19:16;;;;;;;3.00;2.63;;;23.40;99.90;;;;;;5053827;28;20575;-78
2021/08/19 08:21:42;;;;;;;5.57;2.70;;;23.60;99.90;;;;;;5052247;28;20567;-78
2021/08/19 08:24:08;;;;;;;4.13;2.30;;;23.80;99.90;;;;;;5017688;28;20574;-79
2021/08/19 08:26:35;;;;;;;2.60;2.40;;;24.00;99.90;;;;;;5051875;28;20627;-79
2021/08/19 08:29:01;;;;;;;6.03;3.13;;;24.30;99.90;;;;;;5034061;28;20591;-79
2021/08/19 08:31:27;;;;;;;3.77;3.17;;;24.50;99.90;;;;;;5052003;28;20599;-78
2021/08/19 08:33:53;;;;;;;3.00;2.63;;;24.60;99.90;;;;;;5051929;28;20260;-79
2021/08/19 08:36:19;;;;;;;3.00;2.63;;;24.90;99.90;;;;;;5033594;28;20542;-77
2021/08/19 08:38:45;;;;;;;3.10;2.80;;;25.20;99.90;;;;;;5034241;28;20584;-77
2021/08/19 08:41:12;;;;;;;3.70;2.60;;;25.70;99.90;;;;;;5051891;28;20169;-80
2021/08/19 08:43:38;;;;;;;3.30;2.20;;;26.10;99.90;;;;;;5034075;28;21153;-78
2021/08/19 08:46:07;;;;;;;3.30;2.37;;;26.50;99.90;;;;;;5033439;28;20572;-78
2021/08/19 08:48:33;;;;;;;3.20;2.10;;;26.80;99.90;;;;;;5051675;28;20619;-78
2021/08/19 08:50:59;;;;;;;4.13;2.80;;;27.10;99.90;;;;;;5017489;28;20625;-80
2021/08/19 08:53:25;;;;;;;3.50;1.80;;;27.20;99.90;;;;;;5033726;28;20173;-79
2021/08/19 08:55:51;;;;;;;4.07;2.40;;;27.30;99.90;;;;;;5036108;28;20612;-80
2021/08/19 08:58:17;;;;;;;3.20;2.57;;;27.50;99.90;;;;;;5033684;28;20603;-80
2021/08/19 09:00:45;;;;;;;2.13;1.80;;;27.50;99.90;;;;;;5051669;28;20568;-80
2021/08/19 09:03:13;;;;;;;2.47;1.80;;;27.50;99.90;;;;;;5051390;28;20173;-79
2021/08/19 09:05:46;;;;;;;2.60;1.77;;;27.60;99.90;;;;;;5051405;28;21009;-80
2021/08/19 09:08:22;;;;;;;2.00;1.67;;;27.90;99.90;;;;;;5051111;28;20659;-79
2021/08/19 09:10:50;;;;;;;2.87;1.93;;;28.00;99.90;;;;;;5051409;28;20698;-80
2021/08/19 09:13:19;;;;;;;3.20;2.17;;;28.00;99.90;;;;;;5051127;28;20908;-80
2021/08/19 09:15:45;;;;;;;2.90;2.40;;;27.90;99.90;;;;;;5051131;28;20745;-80
2021/08/19 09:18:26;;;;;;;2.13;1.93;;;27.60;99.90;;;;;;5033254;28;20587;-80
2021/08/19 09:20:51;;;;;;;2.60;1.73;;;27.40;99.90;;;;;;5034031;28;20615;-80
2021/08/19 09:23:17;;;;;;;2.70;2.30;;;27.10;99.90;;;;;;5033829;28;20602;-80
2021/08/19 09:25:45;;;;;;;3.70;2.70;;;26.90;99.90;;;;;;5050967;28;20215;-79
2021/08/19 09:28:18;;;;;;;3.30;2.30;;;26.70;99.90;;;;;;5038570;28;20239;-80
2021/08/19 09:31:16;;;;;;;5.07;3.30;;;26.50;99.90;;;;;;5053955;28;20670;-79
2021/08/19 09:33:45;;;;;;;4.03;2.70;;;26.30;99.90;;;;;;5032034;28;20677;-80
2021/08/19 09:36:10;;;;;;;5.03;2.40;;;26.10;99.90;;;;;;5071138;28;20594;-79
2021/08/19 09:38:44;;;;;;;3.20;2.70;;;25.80;99.90;;;;;;5071950;28;20601;-79
2021/08/19 09:41:17;;;;;;;2.30;2.00;;;25.60;99.90;;;;;;5071869;28;20659;-79
2021/08/19 09:43:54;;;;;;;4.30;2.50;;;25.40;99.90;;;;;;5075582;28;20926;-79
2021/08/19 09:46:28;;;;;;;3.60;2.10;;;25.20;99.90;;;;;;5074510;28;20563;-80
2021/08/19 09:48:54;;;;;;;2.93;2.03;;;24.90;99.90;;;;;;5057252;28;20685;-79
2021/08/19 09:51:24;;;;;;;3.10;2.13;;;24.70;99.90;;;;;;5075086;28;20998;-79
2021/08/19 09:53:53;;;;;;;3.97;2.40;;;24.50;99.90;;;;;;5071764;28;20576;-79
2021/08/19 09:56:30;;;;;;;5.63;2.40;;;24.40;99.90;;;;;;5056231;28;20581;-78
2021/08/19 09:59:17;;;;;;;3.30;2.50;;;24.30;99.90;;;;;;5074927;28;20574;-78
2021/08/19 10:01:43;;;;;;;4.00;2.60;;;24.20;99.90;;;;;;5056461;28;20563;-78
2021/08/19 10:04:09;;;;;;;5.00;3.00;;;24.20;99.90;;;;;;5074556;28;21133;-79
2021/08/19 10:06:35;;;;;;;4.17;2.87;;;24.30;99.90;;;;;;5074486;28;20578;-79
2021/08/19 10:09:00;;;;;;;3.97;2.70;;;24.30;99.90;;;;;;5077512;28;20563;-78
2021/08/19 10:11:28;;;;;;;3.87;2.60;;;24.30;99.90;;;;;;5074866;28;20214;-78
2021/08/19 10:13:54;;;;;;;5.73;2.90;;;24.30;99.90;;;;;;5074486;28;20159;-78
2021/08/19 10:16:21;;;;;;;3.10;2.73;;;24.30;99.90;;;;;;5074153;28;20646;-78
2021/08/19 10:18:50;;;;;;;5.13;2.73;;;24.20;99.90;;;;;;5074244;28;20586;-78
2021/08/19 10:21:17;;;;;;;3.70;2.70;;;24.20;99.90;;;;;;5074589;28;20590;-79
2021/08/19 10:23:46;;;;;;;4.17;2.30;;;24.20;99.90;;;;;;5074330;28;20613;-78
2021/08/19 10:26:18;;;;;;;5.37;2.00;;;24.20;99.90;;;;;;5073846;28;20606;-78
2021/08/19 10:28:50;;;;;;;4.23;2.33;;;24.20;99.90;;;;;;5056238;28;20589;-78
2021/08/19 10:31:48;;;;;;;7.13;3.77;;;24.20;99.90;;;;;;5074328;28;20554;-78
2021/08/19 10:34:38;;;;;;;4.67;4.00;;;24.20;99.90;;;;;;5055787;28;20586;-78
2021/08/19 10:37:03;;;;;;;5.00;3.10;;;24.30;99.90;;;;;;5073887;28;21177;-78
2021/08/19 10:39:30;;;;;;;4.70;2.97;;;24.40;99.90;;;;;;5073934;28;20574;-78
2021/08/19 10:41:56;;;;;;;5.93;2.70;;;24.50;99.90;;;;;;5056211;28;20210;-79
2021/08/19 10:44:35;;;;;;;4.43;3.10;;;24.50;99.90;;;;;;5039105;28;20562;-79
2021/08/19 10:47:01;;;;;;;5.07;4.57;;;24.60;99.90;;;;;;5076758;28;20711;-79
2021/08/19 10:49:30;;;;;;;4.97;4.10;;;24.70;99.90;;;;;;5073717;28;20581;-79
2021/08/19 10:52:16;;;;;;;5.23;3.37;;;24.70;99.90;;;;;;5073575;28;21186;-79
2021/08/19 10:54:50;;;;;;;4.13;3.70;;;24.70;99.90;;;;;;5073145;28;20640;-79
2021/08/19 10:57:23;;;;;;;5.60;3.83;;;24.80;99.90;;;;;;5073817;28;20659;-78
2021/08/19 11:00:07;;;;;;;5.40;4.00;;;24.80;99.90;;;;;;5039098;28;20622;-78
2021/08/19 11:02:55;;;;;;;4.73;3.70;;;24.70;99.90;;;;;;5074210;28;21325;-79
2021/08/19 11:05:20;;;;;;;5.73;3.53;;;24.70;99.90;;;;;;5056893;28;20991;-78
2021/08/19 11:07:51;;;;;;;3.60;3.20;;;24.60;99.90;;;;;;5056483;28;20637;-78
2021/08/19 11:10:38;;;;;;;5.37;3.73;;;24.50;99.90;;;;;;5065177;28;20176;-79
2021/08/19 11:13:07;;;;;;;5.00;3.00;;;24.40;99.90;;;;;;5073608;28;20573;-78
2021/08/19 11:15:39;;;;;;;3.57;3.23;;;24.30;99.90;;;;;;5051559;22;20680;-76
2021/08/19 11:18:05;;;;;;;5.10;3.30;;;24.20;99.90;;;;;;5025135;28;20589;-77
2021/08/19 11:20:35;;;;;;;4.03;3.67;;;24.10;99.90;;;;;;5016088;28;20582;-76
2021/08/19 11:23:10;;;;;;;3.20;2.67;;;24.10;99.90;;;;;;5034649;28;20173;-76
2021/08/19 11:25:41;;;;;;;3.43;2.70;;;24.10;99.90;;;;;;5019699;28;20604;-76
2021/08/19 11:28:18;;;;;;;5.70;3.10;;;24.10;99.90;;;;;;5015415;28;20632;-76
2021/08/19 11:30:51;;;;;;;3.20;2.90;;;24.00;99.90;;;;;;5033409;28;20634;-76
2021/08/19 11:33:23;;;;;;;3.53;3.23;;;24.00;99.90;;;;;;5015509;28;20581;-76
2021/08/19 11:36:00;;;;;;;4.03;3.63;;;24.00;99.90;;;;;;5031651;28;20596;-76
2021/08/19 11:38:28;;;;;;;4.23;3.60;;;23.90;99.90;;;;;;5015258;28;20987;-76
2021/08/19 11:40:56;;;;;;;3.83;3.53;;;23.80;99.90;;;;;;4999166;28;20565;-77
2021/08/19 11:43:26;;;;;;;3.30;2.77;;;23.70;99.90;;;;;;5014727;28;21127;-76
2021/08/19 11:46:11;;;;;;;3.93;3.57;;;23.60;99.90;;;;;;4998181;28;20697;-79
2021/08/19 11:48:50;;;;;;;3.03;2.27;;;23.50;99.90;;;;;;5015218;28;20620;-77
2021/08/19 11:51:24;;;;;;;4.30;2.57;;;23.40;99.90;;;;;;5014239;28;20581;-76
2021/08/19 11:53:57;;;;;;;2.33;2.10;;;23.40;99.90;;;;;;5011736;28;20569;-76
2021/08/19 11:56:26;;;;;;;3.20;2.30;;;23.40;99.90;;;;;;5011257;28;20580;-75
2021/08/19 11:59:25;;;;;;;2.27;1.90;;;23.50;99.90;;;;;;4995057;28;20568;-76
2021/08/19 12:01:54;;;;;;;2.20;1.40;;;23.60;99.90;;;;;;5027008;28;20593;-76
2021/08/19 12:04:31;;;;;;;3.00;1.20;;;23.70;99.90;;;;;;5014173;28;20689;-77
2021/08/19 12:06:58;;;;;;;1.70;1.30;;;23.70;99.90;;;;;;5032291;28;20685;-77
2021/08/19 12:09:26;;;;;;;2.20;1.83;;;23.70;99.90;;;;;;5031609;28;20572;-77
2021/08/19 12:11:52;;;;;;;2.10;1.53;;;23.90;99.90;;;;;;5014731;28;20568;-77
2021/08/19 12:14:24;;;;;;;1.80;1.20;;;24.00;99.90;;;;;;4997835;28;20616;-77
2021/08/19 12:16:52;;;;;;;3.67;0.80;;;24.20;99.90;;;;;;5014102;28;20583;-76
2021/08/19 12:19:20;;;;;;;1.93;0.90;;;24.30;99.90;;;;;;5031384;28;20573;-75
2021/08/19 12:21:51;;;;;;;1.97;1.00;;;24.50;99.90;;;;;;4994706;28;20936;-75
2021/08/19 12:24:36;;;;;;;1.70;0.97;;;24.70;99.90;;;;;;4994524;28;20639;-75
2021/08/19 12:27:16;;;;;;;1.50;0.90;;;24.90;99.90;;;;;;5012054;28;20613;-76
2021/08/19 12:29:47;;;;;;;2.00;1.10;;;25.10;99.90;;;;;;5012410;28;21205;-76
2021/08/19 12:32:28;;;;;;;1.40;0.87;;;25.40;99.90;;;;;;5010790;28;20561;-75
2021/08/19 12:34:59;;;;;;;2.47;0.97;;;25.50;99.90;;;;;;5011732;28;20585;-75
2021/08/19 12:37:26;;;;;;;1.70;1.30;;;25.70;99.90;;;;;;5016671;28;20565;-76
2021/08/19 12:39:52;;;;;;;2.20;1.23;;;25.80;99.90;;;;;;5012148;28;20584;-76
2021/08/19 12:42:18;;;;;;;2.40;1.73;;;25.80;99.90;;;;;;5018528;28;20718;-76
2021/08/19 12:45:08;;;;;;;3.30;1.23;;;25.90;99.90;;;;;;5011536;28;20536;-77
2021/08/19 12:47:40;;;;;;;1.90;1.10;;;25.90;99.90;;;;;;5011936;28;20194;-76
2021/08/19 12:50:08;;;;;;;3.30;1.30;;;25.90;99.90;;;;;;5010448;28;20580;-76
2021/08/19 12:52:34;;;;;;;2.30;1.40;;;26.00;99.90;;;;;;5011900;28;20661;-76